createdAt,value
2023-05-19T00:02:21.077Z,9.28
2023-05-19T00:04:50.124Z,9.30
2023-05-19T00:07:22.277Z,9.30
2023-05-19T00:09:49.922Z,9.30
2023-05-19T00:12:17.682Z,9.28
2023-05-19T00:14:45.423Z,9.31
2023-05-19T00:17:13.342Z,9.23
2023-05-19T00:19:41.210Z,9.22
2023-05-19T00:22:08.514Z,9.21
2023-05-19T00:24:35.958Z,9.22
2023-05-19T00:27:03.729Z,9.26
2023-05-19T00:29:31.109Z,9.10
2023-05-19T00:31:58.767Z,8.92
2023-05-19T00:34:26.104Z,8.76
2023-05-19T00:36:53.744Z,8.61
2023-05-19T00:39:21.121Z,8.61
2023-05-19T00:41:48.524Z,8.57
2023-05-19T00:44:16.033Z,8.52
2023-05-19T00:46:59.871Z,8.48
2023-05-19T00:49:27.578Z,8.46
2023-05-19T00:51:55.930Z,8.48
2023-05-19T00:54:24.046Z,8.51
2023-05-19T00:56:51.510Z,8.63
2023-05-19T00:59:19.327Z,8.74
2023-05-19T01:01:49.158Z,8.81
2023-05-19T01:04:20.276Z,8.72
2023-05-19T01:06:58.228Z,8.69
2023-05-19T01:09:26.224Z,8.85
2023-05-19T01:11:54.118Z,8.75
2023-05-19T01:14:21.776Z,8.79
2023-05-19T01:17:15.252Z,8.73
2023-05-19T01:19:43.675Z,8.51
2023-05-19T01:22:23.166Z,8.52
2023-05-19T01:25:04.097Z,8.66
2023-05-19T01:28:18.570Z,8.74
2023-05-19T01:30:52.889Z,8.65
2023-05-19T01:33:22.672Z,8.67
2023-05-19T01:35:50.846Z,8.77
2023-05-19T01:38:20.387Z,8.67
2023-05-19T01:40:50.041Z,8.51
2023-05-19T01:43:22.341Z,8.45
2023-05-19T01:45:51.632Z,8.45
2023-05-19T01:48:19.765Z,8.43
2023-05-19T01:50:47.843Z,8.34
2023-05-19T01:53:16.679Z,8.33
2023-05-19T01:55:50.931Z,8.37
2023-05-19T01:58:44.547Z,8.39
2023-05-19T02:01:38.658Z,8.46
2023-05-19T02:04:39.979Z,8.49
2023-05-19T02:07:31.594Z,8.45
2023-05-19T02:10:05.157Z,8.49
2023-05-19T02:12:35.312Z,8.46
2023-05-19T02:15:07.427Z,8.46
2023-05-19T02:17:38.531Z,8.35
2023-05-19T02:20:07.026Z,8.20
2023-05-19T02:22:38.036Z,8.08
2023-05-19T02:25:10.765Z,7.99
2023-05-19T02:27:41.229Z,7.94
2023-05-19T02:30:11.639Z,7.83
2023-05-19T02:32:41.329Z,7.72
2023-05-19T02:35:12.765Z,7.59
2023-05-19T02:37:43.203Z,7.55
2023-05-19T02:40:16.556Z,7.42
2023-05-19T02:42:48.069Z,7.33
2023-05-19T02:45:16.066Z,7.37
2023-05-19T02:47:43.557Z,7.37
2023-05-19T02:50:11.127Z,7.36
2023-05-19T02:52:38.540Z,7.37
2023-05-19T02:55:06.475Z,7.30
2023-05-19T02:57:35.245Z,7.24
2023-05-19T03:00:02.955Z,7.25
2023-05-19T03:02:30.917Z,7.27
2023-05-19T03:04:58.479Z,7.26
2023-05-19T03:07:26.921Z,7.40
2023-05-19T03:09:54.823Z,7.38
2023-05-19T03:12:22.339Z,7.21
2023-05-19T03:14:49.896Z,7.13
2023-05-19T03:17:17.635Z,7.07
2023-05-19T03:19:45.118Z,7.00
2023-05-19T03:22:12.629Z,6.89
2023-05-19T03:24:40.051Z,6.84
2023-05-19T03:27:08.267Z,6.74
2023-05-19T03:29:35.678Z,6.72
2023-05-19T03:32:03.459Z,6.78
2023-05-19T03:34:32.744Z,6.79
2023-05-19T03:37:00.307Z,6.74
2023-05-19T03:39:27.948Z,6.73
2023-05-19T03:41:56.400Z,6.81
2023-05-19T03:44:23.965Z,6.76
2023-05-19T03:46:51.309Z,6.74
2023-05-19T03:49:41.386Z,6.79
2023-05-19T03:52:27.321Z,6.70
2023-05-19T03:55:10.220Z,6.64
2023-05-19T03:57:37.905Z,6.57
2023-05-19T04:00:06.346Z,6.69
2023-05-19T04:02:41.156Z,6.62
2023-05-19T04:05:09.454Z,6.67
2023-05-19T04:07:38.275Z,6.62
2023-05-19T04:10:06.158Z,6.55
2023-05-19T04:12:34.083Z,6.63
2023-05-19T04:15:01.395Z,6.86
2023-05-19T04:17:28.788Z,6.89
2023-05-19T04:19:56.304Z,6.98
2023-05-19T04:22:23.969Z,7.08
2023-05-19T04:24:52.400Z,6.99
2023-05-19T04:27:19.845Z,7.02
2023-05-19T04:29:48.447Z,7.13
2023-05-19T04:32:17.998Z,7.13
2023-05-19T04:34:46.264Z,7.17
2023-05-19T04:37:20.300Z,7.14
2023-05-19T04:39:48.400Z,7.10
2023-05-19T04:42:19.513Z,7.26
2023-05-19T04:44:49.418Z,7.34
2023-05-19T04:47:18.120Z,7.54
2023-05-19T04:49:46.122Z,7.48
2023-05-19T04:52:13.566Z,7.47
2023-05-19T04:54:42.046Z,7.57
2023-05-19T04:57:12.719Z,7.66
2023-05-19T04:59:40.761Z,7.66
2023-05-19T05:02:09.000Z,7.64
2023-05-19T05:04:40.622Z,7.73
2023-05-19T05:07:08.491Z,7.82
2023-05-19T05:09:36.079Z,7.83
2023-05-19T05:12:03.744Z,7.84
2023-05-19T05:14:31.606Z,7.80
2023-05-19T05:16:59.403Z,7.87
2023-05-19T05:19:27.355Z,8.00
2023-05-19T05:21:56.090Z,8.02
2023-05-19T05:24:24.166Z,8.03
2023-05-19T05:26:55.827Z,8.19
2023-05-19T05:29:23.760Z,8.42
2023-05-19T05:31:51.383Z,8.60
2023-05-19T05:34:19.039Z,8.70
2023-05-19T05:36:46.423Z,8.83
2023-05-19T05:39:14.007Z,9.04
2023-05-19T05:41:43.131Z,9.17
2023-05-19T05:44:12.652Z,9.30
2023-05-19T05:46:42.694Z,9.42
2023-05-19T05:49:12.729Z,9.37
2023-05-19T05:51:54.280Z,9.53
2023-05-19T05:54:30.244Z,9.64
2023-05-19T05:56:58.405Z,9.71
2023-05-19T05:59:25.824Z,9.83
2023-05-19T06:01:53.504Z,9.84
2023-05-19T06:04:21.431Z,9.83
2023-05-19T06:06:48.995Z,10.05
2023-05-19T06:09:21.510Z,10.09
2023-05-19T06:11:49.166Z,10.23
2023-05-19T06:14:16.955Z,10.11
2023-05-19T06:17:03.925Z,10.16
2023-05-19T06:19:31.900Z,10.34
2023-05-19T06:21:59.211Z,10.42
2023-05-19T06:24:27.083Z,10.57
2023-05-19T06:26:54.913Z,10.75
2023-05-19T06:29:22.325Z,10.81
2023-05-19T06:31:51.608Z,10.78
2023-05-19T06:34:21.155Z,10.72
2023-05-19T06:36:48.618Z,10.74
2023-05-19T06:39:18.822Z,10.99
2023-05-19T06:41:46.490Z,11.28
2023-05-19T06:44:27.492Z,11.47
2023-05-19T06:46:55.077Z,11.72
2023-05-19T06:49:22.789Z,12.24
2023-05-19T06:51:50.764Z,12.89
2023-05-19T06:54:18.314Z,13.01
2023-05-19T06:56:45.746Z,13.65
2023-05-19T06:59:14.563Z,13.76
2023-05-19T07:01:47.944Z,14.09
2023-05-19T07:04:15.726Z,14.10
2023-05-19T07:06:45.411Z,13.82
2023-05-19T07:09:13.075Z,14.09
2023-05-19T07:11:41.440Z,14.01
2023-05-19T07:14:10.780Z,14.02
2023-05-19T07:16:38.398Z,13.71
2023-05-19T07:19:06.498Z,13.44
2023-05-19T07:21:34.291Z,13.01
2023-05-19T07:24:02.174Z,13.08
2023-05-19T07:26:29.699Z,13.18
2023-05-19T07:28:57.974Z,13.75
2023-05-19T07:31:26.114Z,14.92
2023-05-19T07:33:54.616Z,15.27
2023-05-19T07:36:22.627Z,15.15
2023-05-19T07:38:56.967Z,14.71
2023-05-19T07:41:25.111Z,13.63
2023-05-19T07:43:52.594Z,13.53
2023-05-19T07:46:22.424Z,14.19
2023-05-19T07:48:49.976Z,14.63
2023-05-19T07:51:17.949Z,14.50
2023-05-19T07:53:47.181Z,15.10
2023-05-19T07:56:14.693Z,15.02
2023-05-19T07:58:42.366Z,14.83
2023-05-19T08:01:09.919Z,14.67
2023-05-19T08:03:37.586Z,14.55
2023-05-19T08:06:05.219Z,14.41
2023-05-19T08:08:33.566Z,14.91
2023-05-19T08:11:04.848Z,14.96
2023-05-19T08:13:32.968Z,15.04
2023-05-19T08:16:00.895Z,15.62
2023-05-19T08:18:28.708Z,15.81
2023-05-19T08:20:56.468Z,15.91
2023-05-19T08:23:23.870Z,15.91
2023-05-19T08:25:51.582Z,15.60
2023-05-19T08:28:19.022Z,15.67
2023-05-19T08:30:46.367Z,15.38
2023-05-19T08:33:14.037Z,15.12
2023-05-19T08:35:41.627Z,14.72
2023-05-19T08:38:09.181Z,14.42
2023-05-19T08:40:38.156Z,14.50
2023-05-19T08:43:05.665Z,14.68
2023-05-19T08:45:34.860Z,15.03
2023-05-19T08:48:03.261Z,15.69
2023-05-19T08:50:33.594Z,16.19
2023-05-19T08:53:18.240Z,16.03
2023-05-19T08:56:01.123Z,15.37
2023-05-19T08:58:30.623Z,15.86
2023-05-19T09:00:59.889Z,16.08
2023-05-19T09:03:29.228Z,16.94
2023-05-19T09:05:57.067Z,16.96
2023-05-19T09:08:24.459Z,16.71
2023-05-19T09:10:51.969Z,16.61
2023-05-19T09:13:19.598Z,16.82
2023-05-19T09:15:48.863Z,16.19
2023-05-19T09:18:19.501Z,16.25
2023-05-19T09:20:47.468Z,16.30
2023-05-19T09:23:17.010Z,16.28
2023-05-19T09:25:51.002Z,15.85
2023-05-19T09:28:25.503Z,16.32
2023-05-19T09:31:13.201Z,16.28
2023-05-19T09:33:46.317Z,16.00
2023-05-19T09:36:14.370Z,15.91
2023-05-19T09:38:41.858Z,16.03
2023-05-19T09:41:09.881Z,15.71
2023-05-19T09:43:37.464Z,15.43
2023-05-19T09:46:11.834Z,15.74
2023-05-19T09:48:40.767Z,15.76
2023-05-19T09:51:11.063Z,15.86
2023-05-19T09:53:39.346Z,15.85
2023-05-19T09:56:08.892Z,16.09
2023-05-19T09:58:37.302Z,16.73
2023-05-19T10:01:05.604Z,16.80
2023-05-19T10:03:34.994Z,16.74
2023-05-19T10:06:05.095Z,16.66
2023-05-19T10:08:34.593Z,16.95
2023-05-19T10:11:02.661Z,16.97
2023-05-19T10:13:32.216Z,16.72
2023-05-19T10:16:00.768Z,16.78
2023-05-19T10:18:29.968Z,16.46
2023-05-19T10:20:58.844Z,16.12
2023-05-19T10:23:27.068Z,16.26
2023-05-19T10:25:57.829Z,16.45
2023-05-19T10:28:33.004Z,15.91
2023-05-19T10:31:02.935Z,15.53
2023-05-19T10:33:41.125Z,15.99
2023-05-19T10:36:31.201Z,16.50
2023-05-19T10:39:35.816Z,16.48
2023-05-19T10:42:26.152Z,17.10
2023-05-19T10:45:13.124Z,17.36
2023-05-19T10:47:44.882Z,18.04
2023-05-19T10:50:12.745Z,18.17
2023-05-19T10:52:40.757Z,17.56
2023-05-19T10:55:17.895Z,17.57
2023-05-19T10:57:57.162Z,17.40
2023-05-19T11:00:29.654Z,17.13
2023-05-19T11:03:17.810Z,16.92
2023-05-19T11:05:46.591Z,17.53
2023-05-19T11:08:14.141Z,17.75
2023-05-19T11:10:48.208Z,17.82
2023-05-19T11:13:23.724Z,17.56
2023-05-19T11:15:52.019Z,17.69
2023-05-19T11:18:20.658Z,17.69
2023-05-19T11:20:58.540Z,17.76
2023-05-19T11:23:26.383Z,18.32
2023-05-19T11:25:56.729Z,18.30
2023-05-19T11:28:26.405Z,17.27
2023-05-19T11:30:57.718Z,16.87
2023-05-19T11:33:30.181Z,16.76
2023-05-19T11:35:58.692Z,16.72
2023-05-19T11:38:28.561Z,17.01
2023-05-19T11:40:56.732Z,16.99
2023-05-19T11:43:25.181Z,17.22
2023-05-19T11:45:54.510Z,17.32
2023-05-19T11:48:22.813Z,17.29
2023-05-19T11:50:54.097Z,17.36
2023-05-19T11:53:21.742Z,17.67
2023-05-19T11:55:49.849Z,17.42
2023-05-19T11:58:17.766Z,17.53
2023-05-19T12:00:47.703Z,17.26
2023-05-19T12:03:15.904Z,17.43
2023-05-19T12:05:46.652Z,17.45
2023-05-19T12:08:16.631Z,17.69
2023-05-19T12:10:44.527Z,17.27
2023-05-19T12:13:12.896Z,16.91
2023-05-19T12:15:40.501Z,17.24
2023-05-19T12:18:08.648Z,17.30
2023-05-19T12:20:37.303Z,17.23
2023-05-19T12:23:06.108Z,17.34
2023-05-19T12:25:34.844Z,17.27
2023-05-19T12:28:07.704Z,16.87
2023-05-19T12:30:35.788Z,17.20
2023-05-19T12:33:03.889Z,17.60
2023-05-19T12:35:36.552Z,17.95
2023-05-19T12:38:08.008Z,18.16
2023-05-19T12:40:37.700Z,17.96
2023-05-19T12:43:06.977Z,17.77
2023-05-19T12:45:38.687Z,17.72
2023-05-19T12:48:12.018Z,17.57
2023-05-19T12:50:39.818Z,17.01
2023-05-19T12:53:14.946Z,17.13
2023-05-19T12:55:44.121Z,16.71
2023-05-19T12:58:13.236Z,16.55
2023-05-19T13:00:42.779Z,16.84
2023-05-19T13:03:16.775Z,17.25
2023-05-19T13:05:52.816Z,17.54
2023-05-19T13:08:24.975Z,17.36
2023-05-19T13:10:52.663Z,17.43
2023-05-19T13:13:20.311Z,17.32
2023-05-19T13:15:51.357Z,17.33
2023-05-19T13:18:19.150Z,17.10
2023-05-19T13:20:47.502Z,17.22
2023-05-19T13:23:15.451Z,17.23
2023-05-19T13:25:43.497Z,17.10
2023-05-19T13:28:11.493Z,17.01
2023-05-19T13:30:45.946Z,17.08
2023-05-19T13:33:13.581Z,16.28
2023-05-19T13:35:41.247Z,16.06
2023-05-19T13:38:10.497Z,16.11
2023-05-19T13:40:40.250Z,16.22
2023-05-19T13:43:09.189Z,15.80
2023-05-19T13:45:37.217Z,15.81
2023-05-19T13:48:04.767Z,16.04
2023-05-19T13:50:32.187Z,15.92
2023-05-19T13:53:00.224Z,15.58
2023-05-19T13:55:27.857Z,16.09
2023-05-19T13:57:56.655Z,16.34
2023-05-19T14:00:24.328Z,16.64
2023-05-19T14:02:52.021Z,16.78
2023-05-19T14:05:19.589Z,16.70
2023-05-19T14:07:47.266Z,16.57
2023-05-19T14:10:15.046Z,16.75
2023-05-19T14:12:59.538Z,16.37
2023-05-19T14:15:29.470Z,16.01
2023-05-19T14:17:56.821Z,16.18
2023-05-19T14:20:23.928Z,16.26
2023-05-19T14:22:51.423Z,16.17
2023-05-19T14:25:18.683Z,16.46
2023-05-19T14:27:45.770Z,16.71
2023-05-19T14:30:13.055Z,16.60
2023-05-19T14:32:40.339Z,16.93
2023-05-19T14:35:07.755Z,17.01
2023-05-19T14:37:35.831Z,17.23
2023-05-19T14:40:04.590Z,16.90
2023-05-19T14:42:32.030Z,16.98
2023-05-19T14:44:59.134Z,17.03
2023-05-19T14:47:27.276Z,16.48
2023-05-19T14:49:54.710Z,16.33
2023-05-19T14:52:22.580Z,16.21
2023-05-19T14:54:49.671Z,15.97
2023-05-19T14:57:16.670Z,15.84
2023-05-19T14:59:43.806Z,15.64
2023-05-19T15:02:15.473Z,15.60
2023-05-19T15:04:42.957Z,15.47
2023-05-19T15:07:10.958Z,15.18
2023-05-19T15:09:38.638Z,15.03
2023-05-19T15:28:57.826Z,14.71
2023-05-19T15:31:25.096Z,14.57
2023-05-19T15:33:52.325Z,14.51
2023-05-19T15:36:19.629Z,14.54
2023-05-19T15:38:46.988Z,14.56
2023-05-19T15:41:14.316Z,14.64
2023-05-19T15:43:41.613Z,14.82
2023-05-19T15:46:08.866Z,14.79
2023-05-19T15:48:36.114Z,14.84
2023-05-19T15:51:03.398Z,14.83
2023-05-19T15:53:34.268Z,14.57
2023-05-19T15:56:02.657Z,14.50
2023-05-19T15:58:31.677Z,14.63
2023-05-19T16:00:58.859Z,14.60
2023-05-19T16:03:26.114Z,14.34
2023-05-19T16:05:54.452Z,14.26
2023-05-19T16:08:21.738Z,14.24
2023-05-19T16:10:49.499Z,14.29
2023-05-19T16:13:16.701Z,14.25
2023-05-19T16:15:43.824Z,14.20
2023-05-19T16:18:14.051Z,14.23
2023-05-19T16:20:41.691Z,14.18
2023-05-19T16:23:08.832Z,14.03
2023-05-19T16:25:35.999Z,13.92
2023-05-19T16:28:03.802Z,13.77
2023-05-19T16:30:31.285Z,13.73
2023-05-19T16:32:58.421Z,13.60
2023-05-19T16:35:35.739Z,13.53
2023-05-19T16:38:07.971Z,13.60
2023-05-19T16:40:35.446Z,13.67
2023-05-19T16:43:02.836Z,13.73
2023-05-19T16:45:30.017Z,13.76
2023-05-19T16:47:57.582Z,13.84
2023-05-19T16:50:24.750Z,13.83
2023-05-19T16:52:52.036Z,13.64
2023-05-19T16:55:20.137Z,13.64
2023-05-19T16:57:47.265Z,13.54
2023-05-19T17:00:15.158Z,13.39
2023-05-19T17:02:42.361Z,13.38
2023-05-19T17:05:09.818Z,13.50
2023-05-19T17:07:36.989Z,13.49
2023-05-19T17:10:04.397Z,13.51
2023-05-19T17:12:31.638Z,13.30
2023-05-19T17:14:58.747Z,13.35
2023-05-19T17:17:25.884Z,13.18
2023-05-19T17:19:53.163Z,13.27
2023-05-19T17:22:20.333Z,13.27
2023-05-19T17:24:47.465Z,13.26
2023-05-19T17:27:15.176Z,13.23
2023-05-19T17:29:42.430Z,13.28
2023-05-19T17:32:09.611Z,13.32
2023-05-19T17:34:36.819Z,13.29
2023-05-19T17:37:04.840Z,13.14
2023-05-19T17:39:32.150Z,13.25
2023-05-19T17:41:59.281Z,13.21
2023-05-19T17:44:26.530Z,13.10
2023-05-19T17:46:53.770Z,13.13
2023-05-19T17:49:23.059Z,13.09
2023-05-19T17:51:51.545Z,13.15
2023-05-19T17:54:18.950Z,13.14
2023-05-19T17:56:47.194Z,13.09
2023-05-19T17:59:15.581Z,13.05
2023-05-19T18:01:42.943Z,12.98
2023-05-19T18:04:11.477Z,12.86
2023-05-19T18:06:43.991Z,12.90
2023-05-19T18:09:13.142Z,12.77
2023-05-19T18:11:40.774Z,12.82
2023-05-19T18:14:07.863Z,12.73
2023-05-19T18:16:35.128Z,12.68
2023-05-19T18:19:03.181Z,12.60
2023-05-19T18:21:32.025Z,12.60
2023-05-19T18:24:02.996Z,12.54
2023-05-19T18:26:33.534Z,12.46
2023-05-19T18:29:07.442Z,12.43
2023-05-19T18:31:35.161Z,12.45
2023-05-19T18:34:03.390Z,12.43
2023-05-19T18:36:30.718Z,12.43
2023-05-19T18:38:59.735Z,12.38
2023-05-19T18:41:26.863Z,12.30
2023-05-19T18:43:54.449Z,12.34
2023-05-19T18:46:21.719Z,12.38
2023-05-19T18:48:50.811Z,12.38
2023-05-19T18:51:18.681Z,12.34
2023-05-19T18:53:48.609Z,12.23
2023-05-19T18:56:26.778Z,12.17
2023-05-19T18:58:54.621Z,12.11
2023-05-19T19:01:22.009Z,12.09
2023-05-19T19:03:50.771Z,12.13
2023-05-19T19:06:18.441Z,12.01
2023-05-19T19:08:45.732Z,11.99
2023-05-19T19:11:13.204Z,11.96
2023-05-19T19:13:40.483Z,12.02
2023-05-19T19:16:07.944Z,11.87
2023-05-19T19:18:36.493Z,11.93
2023-05-19T19:21:05.758Z,11.92
2023-05-19T19:23:33.184Z,11.95
2023-05-19T19:26:00.652Z,11.92
2023-05-19T19:28:27.879Z,11.85
2023-05-19T19:30:55.154Z,11.86
2023-05-19T19:33:22.327Z,11.76
2023-05-19T19:35:50.021Z,11.76
2023-05-19T19:38:17.612Z,11.70
2023-05-19T19:40:44.766Z,11.77
2023-05-19T19:43:11.893Z,11.73
2023-05-19T19:45:39.798Z,11.69
2023-05-19T19:48:07.211Z,11.58
2023-05-19T19:50:37.224Z,11.58
2023-05-19T19:53:08.106Z,11.62
2023-05-19T19:55:35.200Z,11.58
2023-05-19T19:58:02.311Z,11.68
2023-05-19T20:00:29.460Z,11.59
2023-05-19T20:03:04.955Z,11.42
2023-05-19T20:05:32.724Z,11.38
2023-05-19T20:07:59.919Z,11.36
2023-05-19T20:10:27.067Z,11.31
2023-05-19T20:12:54.244Z,11.43
2023-05-19T20:15:27.151Z,11.33
2023-05-19T20:17:54.311Z,11.37
2023-05-19T20:20:21.681Z,11.34
2023-05-19T20:22:52.843Z,11.33
2023-05-19T20:25:20.993Z,11.31
2023-05-19T20:27:48.176Z,11.35
2023-05-19T20:30:15.795Z,11.26
2023-05-19T20:32:42.992Z,11.36
2023-05-19T20:35:10.337Z,11.26
2023-05-19T20:37:37.556Z,11.25
2023-05-19T20:40:05.951Z,11.32
2023-05-19T20:42:33.849Z,11.38
2023-05-19T20:45:01.230Z,11.28
2023-05-19T20:47:30.275Z,11.24
2023-05-19T20:49:58.897Z,11.28
2023-05-19T20:52:27.035Z,11.27
2023-05-19T20:54:54.435Z,11.30
2023-05-19T20:57:21.743Z,11.37
2023-05-19T20:59:49.536Z,11.38
2023-05-19T21:02:17.074Z,11.35
2023-05-19T21:04:45.954Z,11.39
2023-05-19T21:07:15.507Z,11.32
2023-05-19T21:09:46.289Z,11.32
2023-05-19T21:12:20.574Z,11.39
2023-05-19T21:14:49.331Z,11.38
2023-05-19T21:17:16.499Z,11.39
2023-05-19T21:19:43.652Z,11.32
2023-05-19T21:22:11.020Z,11.29
2023-05-19T21:24:39.281Z,11.23
2023-05-19T21:27:06.414Z,11.15
2023-05-19T21:29:33.694Z,11.23
2023-05-19T21:32:01.559Z,11.26
2023-05-19T21:34:33.998Z,11.23
2023-05-19T21:37:01.162Z,11.18
2023-05-19T21:39:28.294Z,11.16
2023-05-19T21:41:55.487Z,11.18
2023-05-19T21:44:26.555Z,11.16
2023-05-19T21:46:53.795Z,11.24
2023-05-19T21:49:23.918Z,11.19
2023-05-19T21:51:51.155Z,11.16
2023-05-19T21:54:18.260Z,11.18
2023-05-19T21:56:47.818Z,11.15
2023-05-19T21:59:15.012Z,11.06
2023-05-19T22:01:42.355Z,11.12
2023-05-19T22:04:10.246Z,11.15
2023-05-19T22:06:38.268Z,11.15
2023-05-19T22:09:05.367Z,11.07
2023-05-19T22:11:32.590Z,11.14
2023-05-19T22:14:08.761Z,11.06
2023-05-19T22:16:36.381Z,11.07
2023-05-19T22:19:03.496Z,11.11
2023-05-19T22:21:31.247Z,10.96
2023-05-19T22:23:58.347Z,11.03
2023-05-19T22:26:27.161Z,11.12
2023-05-19T22:28:55.280Z,11.05
2023-05-19T22:31:22.462Z,11.14
2023-05-19T22:33:49.622Z,11.12
2023-05-19T22:36:23.227Z,11.11
2023-05-19T22:38:52.270Z,11.00
2023-05-19T22:41:19.419Z,10.99
2023-05-19T22:43:46.494Z,11.03
2023-05-19T22:46:14.620Z,11.03
2023-05-19T22:48:41.761Z,11.06
2023-05-19T22:51:08.897Z,11.06
2023-05-19T22:53:36.130Z,11.08
2023-05-19T22:56:03.311Z,11.09
2023-05-19T22:58:30.399Z,11.08
2023-05-19T23:00:57.526Z,11.09
2023-05-19T23:03:24.652Z,11.01
2023-05-19T23:05:52.593Z,10.93
2023-05-19T23:08:19.584Z,10.90
2023-05-19T23:10:46.575Z,10.90
2023-05-19T23:13:15.396Z,10.97
2023-05-19T23:15:42.502Z,10.89
2023-05-19T23:18:09.634Z,10.92
2023-05-19T23:20:36.797Z,10.93
2023-05-19T23:23:06.113Z,10.92
2023-05-19T23:25:33.402Z,10.89
2023-05-19T23:28:00.864Z,10.92
2023-05-19T23:30:33.385Z,10.92
2023-05-19T23:33:01.049Z,10.93
2023-05-19T23:35:28.417Z,10.87
2023-05-19T23:37:55.819Z,10.90
2023-05-19T23:40:23.047Z,10.92
2023-05-19T23:42:50.496Z,10.84
2023-05-19T23:45:17.770Z,10.83
2023-05-19T23:47:44.987Z,10.79
2023-05-19T23:50:12.312Z,10.81
2023-05-19T23:52:39.549Z,10.77
2023-05-19T23:55:07.618Z,10.73
2023-05-19T23:57:34.811Z,10.73
